Time;durP1;ratioP1;P1;durP2;ratioP2;P2;SDS_P1;SDS_P2;PMS_P1;PMS_P2;Temp;Humidity;BMP_temperature;BMP_pressure;BME280_temperature;BME280_humidity;BME280_pressure;Samples;Min_cycle;Max_cycle;Signal;HPM_P1;HPM_P2
2022/12/13 00:00:09;;;;;;;28.88;21.40;;;;;;;-1.88;72.38;99786.47;10365278;28;20052;-46
2022/12/13 00:05:11;;;;;;;27.08;20.15;;;;;;;-2.01;72.58;99780.00;10364824;28;20164;-47
2022/12/13 00:10:13;;;;;;;32.00;21.77;;;;;;;-1.99;72.97;99780.81;10366045;28;20049;-47
2022/12/13 00:15:14;;;;;;;31.88;22.60;;;;;;;-2.05;72.84;99768.00;10366613;28;20164;-46
2022/12/13 00:20:16;;;;;;;28.17;19.15;;;;;;;-1.96;72.49;99778.94;10367054;28;20059;-47
2022/12/13 00:25:20;;;;;;;28.73;20.25;;;;;;;-2.01;72.59;99775.66;10365009;28;20064;-46
2022/12/13 00:30:21;;;;;;;32.38;22.58;;;;;;;-2.10;73.13;99775.09;10364149;28;20128;-47
2022/12/13 00:35:22;;;;;;;28.88;20.98;;;;;;;-2.11;73.28;99778.66;10365186;28;20155;-46
2022/12/13 00:40:26;;;;;;;30.00;21.33;;;;;;;-2.18;72.68;99776.25;10365924;28;20516;-47
2022/12/13 00:45:28;;;;;;;28.85;20.23;;;;;;;-2.08;72.81;99773.31;10362671;28;20113;-46
2022/12/13 00:50:29;;;;;;;27.80;21.02;;;;;;;-2.01;72.62;99754.78;10364346;28;20137;-47
2022/12/13 00:55:31;;;;;;;28.58;20.17;;;;;;;-2.03;72.66;99758.34;10363887;28;20045;-46
2022/12/13 01:00:33;;;;;;;31.42;21.67;;;;;;;-2.04;71.94;99754.03;10366576;28;20685;-46
2022/12/13 01:05:34;;;;;;;30.20;22.10;;;;;;;-2.20;71.96;99758.97;10365432;28;20451;-47
2022/12/13 01:10:56;;;;;;;31.15;22.17;;;;;;;-2.26;71.64;99765.25;10364239;28;20049;-46
2022/12/13 01:15:57;;;;;;;30.08;20.75;;;;;;;-2.38;72.01;99771.72;10366077;28;20056;-45
2022/12/13 01:21:21;;;;;;;29.88;20.42;;;;;;;-2.37;72.20;99762.13;10379416;28;20049;-46
2022/12/13 01:26:23;;;;;;;28.95;20.67;;;;;;;-2.39;72.13;99774.38;10365090;28;20119;-47
2022/12/13 01:31:25;;;;;;;29.77;20.80;;;;;;;-2.56;71.71;99746.31;10365727;28;20148;-47
2022/12/13 01:36:26;;;;;;;26.73;21.48;;;;;;;-2.53;71.89;99756.63;10365083;28;20464;-46
2022/12/13 01:41:30;;;;;;;31.05;21.73;;;;;;;-2.60;71.86;99761.19;10363747;28;20099;-47
2022/12/13 01:46:33;;;;;;;30.45;21.30;;;;;;;-2.73;71.85;99739.91;10365259;28;20076;-47
2022/12/13 01:51:42;;;;;;;31.27;22.08;;;;;;;-2.65;72.10;99757.06;10365565;28;20049;-46
2022/12/13 01:56:51;;;;;;;32.22;21.08;;;;;;;-2.70;72.02;99752.00;10365254;28;20046;-48
2022/12/13 02:02:01;;;;;;;30.98;21.08;;;;;;;-2.68;71.07;99758.84;10365355;28;20665;-47
2022/12/13 02:07:03;;;;;;;33.47;21.58;;;;;;;-2.74;71.40;99756.44;10366037;28;20056;-47
2022/12/13 02:12:04;;;;;;;27.02;20.35;;;;;;;-2.77;71.17;99753.09;10366763;28;20501;-47
2022/12/13 02:17:17;;;;;;;30.85;20.30;;;;;;;-2.92;71.30;99744.88;10366255;28;20046;-45
2022/12/13 02:22:53;;;;;;;29.73;21.73;;;;;;;-2.82;71.21;99747.19;10366588;28;20041;-47
2022/12/13 02:28:16;;;;;;;30.50;19.98;;;;;;;-2.80;71.31;99737.59;10362116;28;20063;-46
2022/12/13 02:33:39;;;;;;;25.30;18.73;;;;;;;-2.84;71.36;99736.81;10364070;28;20076;-46
2022/12/13 02:38:43;;;;;;;26.88;18.27;;;;;;;-2.85;71.50;99743.78;10368028;28;20140;-46
2022/12/13 02:44:04;;;;;;;24.23;15.60;;;;;;;-2.88;70.66;99736.09;10369554;28;20046;-46
2022/12/13 02:49:26;;;;;;;28.90;19.23;;;;;;;-2.92;71.05;99734.47;10368017;28;20958;-46
2022/12/13 02:54:29;;;;;;;29.60;19.58;;;;;;;-3.00;70.67;99731.28;10367823;28;20136;-45
2022/12/13 02:59:37;;;;;;;30.17;21.70;;;;;;;-3.10;70.39;99725.50;10367509;28;20154;-47
2022/12/13 03:10:28;;;;;;;29.65;20.27;;;;;;;-3.21;70.42;99725.88;10363215;28;20046;-45
2022/12/13 03:16:07;;;;;;;28.58;19.05;;;;;;;-3.27;69.87;99718.25;10368276;28;20049;-46
2022/12/13 03:21:11;;;;;;;27.98;19.48;;;;;;;-3.50;69.97;99694.72;10330822;28;20049;-47
2022/12/13 03:26:16;;;;;;;28.92;18.65;;;;;;;-3.43;70.64;99724.84;10367353;28;20075;-46
2022/12/13 03:31:18;;;;;;;27.55;18.00;;;;;;;-3.41;70.63;99715.22;10366303;28;20053;-45
2022/12/13 03:36:20;;;;;;;31.83;19.73;;;;;;;-3.39;69.59;99724.69;10366916;28;20057;-45
2022/12/13 03:41:30;;;;;;;25.52;17.95;;;;;;;-3.49;70.39;99717.25;10368239;28;20045;-45
2022/12/13 03:46:32;;;;;;;24.27;16.90;;;;;;;-3.52;70.80;99714.72;10367687;28;20080;-46
2022/12/13 03:51:33;;;;;;;26.52;16.77;;;;;;;-3.56;70.15;99709.63;10367766;28;20049;-46
2022/12/13 03:56:35;;;;;;;25.73;16.55;;;;;;;-3.63;71.19;99700.31;10365655;28;20646;-46
2022/12/13 04:01:36;;;;;;;29.38;17.80;;;;;;;-3.64;71.15;99698.59;10366705;28;20053;-46
2022/12/13 04:06:38;;;;;;;26.52;17.10;;;;;;;-3.65;71.07;99696.03;10364645;28;20281;-47
2022/12/13 04:16:59;;;;;;;25.08;16.98;;;;;;;-3.98;71.15;99647.63;10361914;28;20045;-47
2022/12/13 04:22:01;;;;;;;30.05;18.52;;;;;;;-3.72;71.07;99695.38;10361923;28;20129;-46
2022/12/13 04:27:02;;;;;;;26.60;17.35;;;;;;;-3.69;71.29;99700.50;10359835;28;20045;-47
2022/12/13 04:32:04;;;;;;;26.48;17.00;;;;;;;-3.59;70.61;99699.31;10359811;28;20053;-46
2022/12/13 04:37:26;;;;;;;25.67;17.30;;;;;;;-3.66;71.19;99695.19;10359627;28;20053;-46
2022/12/13 04:42:27;;;;;;;24.38;16.17;;;;;;;-3.70;71.03;99698.78;10349628;28;21639;-46
2022/12/13 04:47:28;;;;;;;28.50;18.58;;;;;;;-3.72;70.58;99700.59;10360032;28;20259;-47
2022/12/13 04:52:30;;;;;;;28.85;17.70;;;;;;;-3.71;70.96;99711.84;10356337;28;20636;-47
2022/12/13 04:57:31;;;;;;;26.02;16.70;;;;;;;-3.72;70.98;99700.59;10357314;28;20053;-47
2022/12/13 05:02:32;;;;;;;26.42;16.60;;;;;;;-3.81;71.41;99706.91;10356631;28;20465;-46
2022/12/13 05:07:35;;;;;;;25.92;17.08;;;;;;;-3.84;71.67;99700.94;10362205;28;20142;-47
2022/12/13 05:12:43;;;;;;;29.92;18.67;;;;;;;-3.73;71.51;99704.94;10361893;28;20053;-48
2022/12/13 05:17:44;;;;;;;27.48;18.90;;;;;;;-3.79;71.19;99699.06;10347390;28;20050;-46
2022/12/13 05:22:45;;;;;;;27.75;17.27;;;;;;;-3.78;71.62;99695.59;10352092;28;20041;-46
2022/12/13 05:27:47;;;;;;;24.85;17.40;;;;;;;-3.75;71.57;99708.50;10357968;28;20068;-47
2022/12/13 05:32:48;;;;;;;27.60;17.40;;;;;;;-3.77;71.88;99720.66;10355428;28;20045;-47
2022/12/13 05:37:51;;;;;;;26.45;17.15;;;;;;;-3.80;71.87;99706.03;10356166;28;20143;-52
2022/12/13 05:42:56;;;;;;;29.60;18.23;;;;;;;-3.83;72.36;99708.69;10353724;28;20060;-46
2022/12/13 05:48:02;;;;;;;24.70;16.63;;;;;;;-3.80;72.06;99703.44;10351224;28;20049;-47
2022/12/13 05:53:04;;;;;;;31.10;19.73;;;;;;;-3.78;71.90;99690.38;10350128;28;20488;-45
2022/12/13 05:58:05;;;;;;;28.15;18.17;;;;;;;-3.87;72.10;99667.22;10334130;28;20058;-47
2022/12/13 06:03:13;;;;;;;26.60;17.25;;;;;;;-3.74;71.56;99694.56;10331749;28;20053;-45
2022/12/13 06:08:15;;;;;;;27.85;17.13;;;;;;;-3.81;71.48;99693.91;10341694;28;20072;-50
2022/12/13 06:13:25;;;;;;;29.00;19.02;;;;;;;-3.84;71.54;99687.94;10340785;28;20045;-47
2022/12/13 06:18:34;;;;;;;27.30;17.80;;;;;;;-3.82;71.69;99701.78;10340641;28;20049;-46
2022/12/13 06:23:36;;;;;;;26.55;16.58;;;;;;;-4.03;71.29;99664.25;10338374;28;20057;-46
2022/12/13 06:28:37;;;;;;;26.70;18.05;;;;;;;-3.87;71.14;99699.31;10337745;28;20528;-47
2022/12/13 06:33:38;;;;;;;25.90;17.25;;;;;;;-3.88;71.05;99704.56;10340150;28;20858;-46
2022/12/13 06:38:40;;;;;;;28.63;17.95;;;;;;;-3.86;70.91;99698.38;10339764;28;20050;-47
2022/12/13 06:43:45;;;;;;;25.60;18.00;;;;;;;-3.77;71.20;99710.28;10339885;28;20049;-45
2022/12/13 06:48:47;;;;;;;25.98;17.60;;;;;;;-3.74;70.83;99702.38;10340068;28;20057;-46
2022/12/13 06:53:49;;;;;;;25.75;17.13;;;;;;;-3.84;70.53;99711.34;10339096;28;20046;-46
2022/12/13 06:58:50;;;;;;;25.20;17.15;;;;;;;-3.87;71.49;99704.50;10335828;28;20064;-47
2022/12/13 07:03:56;;;;;;;28.42;18.27;;;;;;;-3.80;71.06;99686.97;10336798;28;20144;-46
2022/12/13 07:08:57;;;;;;;24.55;17.75;;;;;;;-3.75;70.19;99705.91;10334644;28;20094;-46
2022/12/13 07:14:00;;;;;;;24.48;16.90;;;;;;;-3.72;70.25;99711.00;10334937;28;20061;-47
2022/12/13 07:19:03;;;;;;;25.38;16.05;;;;;;;-3.73;70.14;99711.88;10333370;28;20062;-45
2022/12/13 07:24:23;;;;;;;26.27;16.30;;;;;;;-3.68;70.30;99714.34;10334629;28;20092;-52
2022/12/13 07:29:24;;;;;;;29.88;19.08;;;;;;;-3.71;69.78;99717.88;10336600;28;20061;-46
2022/12/13 07:34:26;;;;;;;24.55;16.15;;;;;;;-3.76;69.71;99707.63;10336058;28;20049;-47
2022/12/13 07:39:27;;;;;;;27.90;18.55;;;;;;;-4.04;70.26;99658.19;10338572;28;20696;-46
2022/12/13 07:44:28;;;;;;;26.75;17.00;;;;;;;-3.70;69.47;99714.41;10341970;28;20056;-46
2022/12/13 07:49:30;;;;;;;27.70;17.17;;;;;;;-3.65;69.82;99715.09;10340170;28;20076;-47
2022/12/13 07:54:32;;;;;;;26.70;16.83;;;;;;;-3.61;69.31;99714.09;10338741;28;20056;-47
2022/12/13 07:59:33;;;;;;;25.98;16.38;;;;;;;-3.61;69.72;99714.09;10336282;28;20045;-47
2022/12/13 08:04:34;;;;;;;23.20;16.60;;;;;;;-3.50;69.43;99726.78;10336700;28;20064;-48
2022/12/13 08:09:39;;;;;;;24.60;16.55;;;;;;;-3.44;69.47;99717.94;10336749;28;20799;-46
2022/12/13 08:14:40;;;;;;;27.73;17.30;;;;;;;-3.31;68.61;99716.66;10336810;28;20506;-47
2022/12/13 08:19:42;;;;;;;23.73;16.23;;;;;;;-3.27;68.42;99717.38;10340018;28;20053;-47
2022/12/13 08:24:43;;;;;;;23.70;15.55;;;;;;;-3.33;68.37;99705.44;10338762;28;20053;-46
2022/12/13 08:29:45;;;;;;;25.98;17.92;;;;;;;-3.18;68.62;99714.50;10340596;28;20061;-47
2022/12/13 08:34:46;;;;;;;26.48;16.98;;;;;;;-3.09;67.87;99715.94;10337642;28;20280;-51
2022/12/13 08:39:47;;;;;;;26.50;17.85;;;;;;;-2.98;67.78;99713.00;10338403;28;20045;-46
2022/12/13 08:44:50;;;;;;;25.67;18.17;;;;;;;-2.96;68.31;99705.97;10337446;28;20049;-47
2022/12/13 08:49:54;;;;;;;24.17;17.58;;;;;;;-2.87;67.67;99705.66;10336022;28;20052;-46
2022/12/13 08:54:55;;;;;;;23.80;17.50;;;;;;;-2.94;67.17;99694.63;10337119;28;20056;-49
2022/12/13 08:59:57;;;;;;;28.70;19.52;;;;;;;-2.83;67.01;99707.28;10331420;28;20712;-46
2022/12/13 09:04:58;;;;;;;27.42;17.90;;;;;;;-2.83;67.11;99714.25;10333588;28;20133;-46
2022/12/13 09:09:59;;;;;;;28.02;16.95;;;;;;;-2.79;67.51;99719.28;10333516;28;20053;-47
2022/12/13 09:15:21;;;;;;;24.05;17.77;;;;;;;-2.64;67.09;99733.56;10328355;28;20783;-49
2022/12/13 09:20:24;;;;;;;25.88;17.05;;;;;;;-2.65;67.04;99713.59;10326100;28;20583;-46
2022/12/13 09:25:30;;;;;;;28.23;18.40;;;;;;;-2.49;66.48;99717.38;10328088;28;20045;-47
2022/12/13 09:30:38;;;;;;;24.35;16.65;;;;;;;-2.45;66.30;99712.06;10335763;28;20694;-48
2022/12/13 09:35:39;;;;;;;22.63;16.15;;;;;;;-2.10;66.38;99736.88;10335542;28;20059;-46
2022/12/13 09:40:44;;;;;;;27.40;16.75;;;;;;;-1.87;65.83;99735.16;10338517;28;20132;-46
2022/12/13 09:45:47;;;;;;;25.73;16.63;;;;;;;-1.82;65.27;99733.22;10339240;28;20847;-46
2022/12/13 09:50:49;;;;;;;24.05;17.10;;;;;;;-1.62;64.74;99748.13;10353473;28;20136;-48
2022/12/13 09:55:59;;;;;;;24.23;16.45;;;;;;;-1.48;64.83;99743.22;10338614;28;20049;-47
2022/12/13 10:01:11;;;;;;;26.58;17.63;;;;;;;-1.44;64.33;99733.50;10333583;28;20061;-47
2022/12/13 10:06:15;;;;;;;24.48;17.45;;;;;;;-1.39;64.31;99725.50;10341582;28;20680;-46
2022/12/13 10:11:25;;;;;;;24.52;17.88;;;;;;;-1.25;63.76;99729.25;10339312;28;20630;-46
2022/12/13 10:16:33;;;;;;;23.75;16.92;;;;;;;-1.05;63.50;99725.00;10340429;28;20478;-46
2022/12/13 10:21:41;;;;;;;23.45;16.10;;;;;;;-0.83;63.76;99718.88;10337556;28;20060;-46
2022/12/13 10:26:43;;;;;;;22.33;15.77;;;;;;;-0.54;62.37;99728.94;10336627;28;20052;-46
2022/12/13 10:31:47;;;;;;;23.00;16.15;;;;;;;-0.24;61.21;99720.66;10337744;28;20242;-47
2022/12/13 10:36:49;;;;;;;20.33;16.00;;;;;;;0.06;60.19;99699.28;10332684;28;20053;-55
2022/12/13 10:42:02;;;;;;;21.90;16.00;;;;;;;0.80;58.63;99693.16;10338276;28;20290;-54
2022/12/13 10:47:23;;;;;;;22.38;16.35;;;;;;;1.81;55.45;99682.81;10329949;28;20050;-54
2022/12/13 10:52:29;;;;;;;20.95;15.02;;;;;;;4.24;48.68;99683.63;10337102;28;20042;-54
2022/12/13 10:57:32;;;;;;;20.60;14.63;;;;;;;8.38;39.96;99644.28;10335606;28;20045;-54
2022/12/13 11:02:38;;;;;;;20.13;15.80;;;;;;;11.61;34.84;99654.28;10336931;28;20069;-54
2022/12/13 11:07:39;;;;;;;17.10;13.95;;;;;;;12.95;31.60;99661.03;10333179;28;20050;-47
2022/12/13 11:12:41;;;;;;;19.05;15.38;;;;;;;13.73;29.29;99654.94;10335550;28;20049;-48
2022/12/13 11:17:53;;;;;;;17.48;14.30;;;;;;;15.32;27.18;99638.91;10335129;28;20753;-48
2022/12/13 11:23:01;;;;;;;16.67;14.38;;;;;;;14.97;26.31;99632.09;10338857;28;20050;-47
2022/12/13 11:28:40;;;;;;;14.68;13.25;;;;;;;16.01;25.04;99618.81;10334482;28;20860;-48
2022/12/13 11:34:21;;;;;;;15.02;13.40;;;;;;;15.49;25.43;99615.63;10334561;28;20056;-47
2022/12/13 11:39:29;;;;;;;14.98;13.48;;;;;;;16.06;24.64;99603.88;10330457;28;20553;-47
2022/12/13 11:44:52;;;;;;;15.45;13.82;;;;;;;16.84;23.42;99582.38;10333153;28;20049;-48
2022/12/13 11:49:55;;;;;;;14.65;13.25;;;;;;;16.41;23.75;99579.34;10332716;28;20049;-47
2022/12/13 11:55:09;;;;;;;14.02;12.48;;;;;;;16.54;23.34;99593.03;10333697;28;20060;-47
2022/12/13 12:00:32;;;;;;;15.90;14.23;;;;;;;18.95;22.66;99590.16;10333911;28;20072;-47
2022/12/13 12:05:39;;;;;;;16.75;14.95;;;;;;;19.41;21.23;99584.25;10329193;28;20060;-47
2022/12/13 12:10:43;;;;;;;14.85;13.35;;;;;;;18.47;21.67;99556.47;10335189;28;20618;-47
2022/12/13 12:16:12;;;;;;;15.30;13.82;;;;;;;19.13;20.66;99566.22;10332422;28;20053;-49
2022/12/13 12:21:28;;;;;;;15.75;14.18;;;;;;;16.25;23.62;99559.63;10335034;28;20053;-47
2022/12/13 12:27:18;;;;;;;16.70;14.63;;;;;;;17.80;22.66;99565.63;10335244;28;20369;-47
2022/12/13 12:32:42;;;;;;;14.90;13.45;;;;;;;17.26;22.68;99559.53;10333891;28;20045;-47
2022/12/13 12:37:59;;;;;;;15.45;13.95;;;;;;;17.08;23.04;99550.94;10333121;28;20634;-47
2022/12/13 12:43:16;;;;;;;14.20;12.88;;;;;;;16.82;23.13;99546.78;10333280;28;20715;-47
2022/12/13 12:48:49;;;;;;;15.50;14.00;;;;;;;16.69;22.91;99523.19;10337195;28;20045;-47
2022/12/13 12:54:41;;;;;;;15.07;13.68;;;;;;;16.10;24.14;99534.56;10345963;28;20073;-48
2022/12/13 13:00:08;;;;;;;15.63;13.60;;;;;;;16.92;23.16;99533.97;10325678;28;20052;-48
2022/12/13 13:05:26;;;;;;;14.13;12.82;;;;;;;14.79;25.28;99538.47;10324901;28;20050;-48
2022/12/13 13:10:27;;;;;;;29.20;17.60;;;;;;;16.53;25.30;99526.03;10332363;28;20049;-47
2022/12/13 13:15:32;;;;;;;15.45;13.85;;;;;;;16.53;23.82;99529.56;10332072;28;20053;-48
2022/12/13 13:20:33;;;;;;;15.43;13.82;;;;;;;15.36;25.44;99535.69;10334439;28;20269;-52
2022/12/13 13:25:35;;;;;;;17.38;15.30;;;;;;;14.67;27.23;99530.75;10346951;28;20175;-47
2022/12/13 13:31:06;;;;;;;15.65;14.00;;;;;;;13.15;28.37;99536.09;10332745;28;20068;-47
2022/12/13 13:36:08;;;;;;;17.02;15.05;;;;;;;10.75;31.67;99531.81;10327524;28;20512;-47
2022/12/13 13:41:38;;;;;;;16.17;14.48;;;;;;;8.57;36.13;99531.38;10329916;28;20053;-46
2022/12/13 13:47:13;;;;;;;16.50;14.27;;;;;;;6.89;39.58;99529.69;10331179;28;20098;-46
2022/12/13 13:52:20;;;;;;;16.95;14.43;;;;;;;5.49;43.19;99524.94;10327606;28;20049;-46
2022/12/13 13:57:57;;;;;;;16.60;14.80;;;;;;;4.64;45.83;99527.31;10330267;28;20454;-46
2022/12/13 14:10:28;;;;;;;19.08;15.68;;;;;;;3.64;49.38;99524.13;10231802;28;20058;-48
2022/12/13 14:16:00;;;;;;;21.20;16.20;;;;;;;3.31;51.05;99530.56;10328164;28;20394;-48
2022/12/13 14:21:05;;;;;;;21.73;17.65;;;;;;;3.05;51.81;99540.03;10332176;28;20083;-48
2022/12/13 14:26:18;;;;;;;21.92;17.00;;;;;;;2.70;53.35;99546.47;10329561;28;20075;-48
2022/12/13 14:31:31;;;;;;;22.38;16.40;;;;;;;2.30;54.33;99517.31;10332789;28;20360;-48
2022/12/13 14:36:35;;;;;;;22.92;16.67;;;;;;;2.20;55.14;99537.97;10349936;28;20071;-49
2022/12/13 14:41:48;;;;;;;22.85;17.00;;;;;;;1.98;55.65;99525.22;10334594;28;20489;-49
2022/12/13 14:47:03;;;;;;;21.70;16.58;;;;;;;1.75;56.67;99521.28;10334594;28;20438;-48
2022/12/13 14:52:15;;;;;;;20.58;15.77;;;;;;;1.59;57.32;99529.13;10334139;28;20454;-47
2022/12/13 14:57:29;;;;;;;22.65;16.52;;;;;;;1.38;57.76;99532.03;10334248;28;20042;-46
2022/12/13 15:02:32;;;;;;;21.67;16.17;;;;;;;1.10;58.60;99529.19;10333223;28;20118;-46
2022/12/13 15:07:42;;;;;;;21.75;15.70;;;;;;;1.00;59.26;99534.88;10330984;28;20056;-48
2022/12/13 15:12:45;;;;;;;21.45;15.70;;;;;;;0.91;59.38;99535.38;10330233;28;20052;-48
2022/12/13 15:17:47;;;;;;;19.52;14.93;;;;;;;0.81;60.23;99531.53;10333806;28;20050;-49
2022/12/13 15:23:00;;;;;;;19.35;15.90;;;;;;;0.59;60.51;99509.06;10331992;28;20652;-49
2022/12/13 15:28:04;;;;;;;20.80;14.75;;;;;;;0.54;60.63;99500.59;10344365;28;20057;-47
2022/12/13 15:33:16;;;;;;;18.42;15.43;;;;;;;0.68;60.62;99498.13;10335910;28;20056;-48
2022/12/13 15:38:19;;;;;;;21.92;16.02;;;;;;;0.69;60.53;99491.97;10358261;28;20041;-48
2022/12/13 15:43:36;;;;;;;19.58;14.85;;;;;;;0.62;60.69;99485.34;10360334;28;20045;-48
2022/12/13 15:48:42;;;;;;;19.10;15.60;;;;;;;0.64;60.56;99487.88;10359377;28;20057;-48
2022/12/13 15:54:10;;;;;;;19.20;14.80;;;;;;;0.74;59.96;99481.25;10351496;28;20060;-47
2022/12/13 15:59:27;;;;;;;19.45;14.60;;;;;;;0.64;60.46;99474.78;10357665;28;20360;-48
2022/12/13 16:04:32;;;;;;;18.05;14.00;;;;;;;0.44;60.42;99478.44;10353842;28;20506;-47
2022/12/13 16:09:36;;;;;;;19.75;14.25;;;;;;;0.35;60.40;99474.50;10368697;28;20754;-47
2022/12/13 16:14:43;;;;;;;12.52;10.35;;;;;;;0.34;60.44;99476.25;10356687;28;20388;-49
2022/12/13 16:19:54;;;;;;;20.35;14.13;;;;;;;0.23;60.63;99469.91;10355309;28;20486;-48
2022/12/13 16:24:56;;;;;;;21.33;17.75;;;;;;;0.11;60.35;99468.75;10358747;28;20072;-47
2022/12/13 16:29:57;;;;;;;19.50;16.13;;;;;;;0.13;60.49;99469.50;10360585;28;20059;-49
2022/12/13 16:34:58;;;;;;;15.98;13.55;;;;;;;0.07;59.84;99464.56;10360238;28;20049;-47
2022/12/13 16:40:15;;;;;;;15.88;12.63;;;;;;;0.02;59.99;99461.34;10351759;28;20053;-49
2022/12/13 16:45:16;;;;;;;17.17;13.57;;;;;;;-0.12;59.86;99435.84;10357810;28;20689;-47
2022/12/13 16:50:43;;;;;;;13.48;10.23;;;;;;;0.08;59.37;99461.03;10359278;28;20054;-47
2022/12/13 16:55:45;;;;;;;13.15;11.40;;;;;;;0.02;59.63;99458.75;10357798;28;20049;-50
2022/12/13 17:01:00;;;;;;;15.48;10.93;;;;;;;0.02;59.45;99440.41;10357900;28;20728;-47
2022/12/13 17:06:02;;;;;;;13.45;10.82;;;;;;;-0.02;59.78;99437.91;10360289;28;20191;-47
2022/12/13 17:11:05;;;;;;;13.85;10.90;;;;;;;-0.09;59.70;99449.66;10355269;28;21022;-47
2022/12/13 17:16:07;;;;;;;17.35;10.85;;;;;;;-0.19;60.07;99446.63;10362102;28;20076;-47
2022/12/13 17:21:09;;;;;;;12.77;10.50;;;;;;;-0.24;59.75;99421.59;10358966;28;20046;-48
2022/12/13 17:26:11;;;;;;;15.43;11.38;;;;;;;-0.30;60.40;99440.22;10359037;28;20188;-47
2022/12/13 17:31:12;;;;;;;15.30;11.50;;;;;;;-0.43;60.67;99439.97;10354804;28;20128;-48
2022/12/13 17:36:14;;;;;;;12.68;10.38;;;;;;;-0.49;60.11;99422.81;10359323;28;20614;-48
2022/12/13 17:41:17;;;;;;;13.45;11.05;;;;;;;-0.36;60.46;99451.84;10356999;28;20478;-47
2022/12/13 17:46:18;;;;;;;12.40;9.88;;;;;;;-0.23;59.79;99441.63;10358251;28;20053;-47
2022/12/13 17:51:20;;;;;;;15.88;10.85;;;;;;;-0.25;60.59;99433.00;10352906;28;20053;-46
2022/12/13 17:56:21;;;;;;;12.05;9.85;;;;;;;-0.22;59.98;99432.84;10367451;28;20049;-51
2022/12/13 18:01:24;;;;;;;12.35;10.35;;;;;;;-0.31;60.76;99425.47;10362887;28;20828;-48
2022/12/13 18:06:26;;;;;;;14.90;11.43;;;;;;;-0.29;60.30;99432.28;10365605;28;20099;-48
2022/12/13 18:11:27;;;;;;;14.20;10.90;;;;;;;-0.33;60.24;99437.75;10366037;28;20552;-48
2022/12/13 18:16:35;;;;;;;12.93;10.23;;;;;;;-0.50;60.65;99418.50;10362605;28;20342;-47
2022/12/13 18:21:41;;;;;;;12.65;10.52;;;;;;;-0.47;60.25;99418.34;10365578;28;20058;-48
2022/12/13 18:26:43;;;;;;;11.98;10.55;;;;;;;-0.52;60.58;99411.66;10363841;28;20122;-49
2022/12/13 18:31:44;;;;;;;16.98;10.27;;;;;;;-0.58;60.58;99418.03;10363170;28;20061;-47
2022/12/13 18:36:46;;;;;;;13.18;11.48;;;;;;;-0.56;60.90;99413.56;10365879;28;20049;-49
2022/12/13 18:41:47;;;;;;;15.88;10.10;;;;;;;-0.57;60.58;99406.63;10366187;28;20171;-48
2022/12/13 18:46:50;;;;;;;11.23;8.82;;;;;;;-0.62;60.95;99400.78;10365454;28;20053;-49
2022/12/13 18:51:51;;;;;;;13.50;10.02;;;;;;;-0.69;61.11;99407.22;10365162;28;20621;-47
2022/12/13 18:56:53;;;;;;;17.52;12.20;;;;;;;-0.69;61.53;99409.84;10364613;28;20049;-49
2022/12/13 19:01:54;;;;;;;14.95;11.20;;;;;;;-0.65;61.55;99403.56;10360287;28;20520;-49
2022/12/13 19:06:56;;;;;;;14.32;11.40;;;;;;;-0.64;61.45;99400.03;10361577;28;20049;-49
2022/12/13 19:11:57;;;;;;;12.45;10.05;;;;;;;-0.73;61.46;99394.31;10358816;28;20795;-52
2022/12/13 19:16:59;;;;;;;13.18;10.32;;;;;;;-0.73;61.05;99386.47;10359792;28;20134;-48
2022/12/13 19:22:00;;;;;;;16.95;11.32;;;;;;;-0.87;61.67;99367.13;10362149;28;20132;-47
2022/12/13 19:27:02;;;;;;;13.23;10.95;;;;;;;-0.67;61.30;99387.09;10356015;28;20076;-51
2022/12/13 19:32:03;;;;;;;12.38;10.25;;;;;;;-0.52;60.59;99375.06;10361669;28;20045;-47
2022/12/13 19:37:04;;;;;;;13.38;11.27;;;;;;;-0.62;61.03;99365.03;10363527;28;20425;-47
2022/12/13 19:42:07;;;;;;;12.45;11.13;;;;;;;-0.67;60.80;99363.59;10362633;28;20613;-47
2022/12/13 19:47:09;;;;;;;13.93;11.57;;;;;;;-0.75;61.13;99354.34;10358488;28;20395;-48
2022/12/13 19:52:11;;;;;;;15.52;12.73;;;;;;;-0.77;61.23;99355.31;10358799;28;20076;-48
2022/12/13 19:57:13;;;;;;;15.02;12.55;;;;;;;-0.79;61.66;99344.94;10357028;28;20171;-48
2022/12/13 20:02:14;;;;;;;16.35;13.10;;;;;;;-0.78;61.26;99333.56;10359426;28;20643;-47
2022/12/13 20:07:16;;;;;;;16.58;13.15;;;;;;;-0.80;61.31;99330.16;10358672;28;20071;-49
2022/12/13 20:12:17;;;;;;;17.05;12.77;;;;;;;-0.79;61.36;99334.50;10355859;28;20265;-48
2022/12/13 20:17:19;;;;;;;15.88;12.73;;;;;;;-0.82;62.06;99325.97;10358888;28;20754;-48
2022/12/13 20:22:20;;;;;;;17.90;13.73;;;;;;;-0.83;61.37;99327.72;10361303;28;20049;-49
2022/12/13 20:27:22;;;;;;;17.52;12.80;;;;;;;-0.89;62.21;99328.00;10362719;28;20050;-47
2022/12/13 20:32:23;;;;;;;15.20;12.57;;;;;;;-0.87;62.26;99320.97;10363444;28;20045;-47
2022/12/13 20:37:26;;;;;;;17.02;14.35;;;;;;;-0.84;62.00;99317.34;10363631;28;20128;-48
2022/12/13 20:42:29;;;;;;;15.02;11.95;;;;;;;-0.81;62.03;99323.28;10362858;28;20142;-48
2022/12/13 20:47:30;;;;;;;15.20;12.30;;;;;;;-0.73;62.36;99313.28;10365622;28;20199;-47
2022/12/13 20:52:38;;;;;;;15.95;12.65;;;;;;;-0.76;61.46;99305.59;10360091;28;20059;-48
2022/12/13 20:57:41;;;;;;;14.75;10.82;;;;;;;-0.62;61.68;99314.53;10363037;28;20056;-47
2022/12/13 21:02:43;;;;;;;15.38;11.55;;;;;;;-0.58;61.00;99289.94;10361509;28;20057;-49
2022/12/13 21:13:05;;;;;;;15.73;12.65;;;;;;;-0.63;61.08;99286.69;10360188;28;20538;-48
2022/12/13 21:18:06;;;;;;;14.65;12.25;;;;;;;-0.69;61.73;99287.84;10355675;28;20624;-53
2022/12/13 21:23:07;;;;;;;17.63;12.80;;;;;;;-0.73;61.67;99297.59;10352019;28;20064;-48
2022/12/13 21:28:09;;;;;;;16.13;13.23;;;;;;;-0.76;61.46;99283.84;10364695;28;20050;-48
2022/12/13 21:33:10;;;;;;;18.17;13.13;;;;;;;-0.78;62.09;99278.69;10367471;28;20153;-49
2022/12/13 21:38:12;;;;;;;16.75;13.15;;;;;;;-0.75;62.07;99272.44;10368113;28;21272;-48
2022/12/13 21:43:14;;;;;;;15.88;12.50;;;;;;;-0.81;61.80;99259.69;10367502;28;20132;-48
2022/12/13 21:48:15;;;;;;;18.05;12.45;;;;;;;-0.90;61.71;99250.56;10368874;28;20049;-48
2022/12/13 21:53:16;;;;;;;14.90;12.13;;;;;;;-0.87;62.30;99232.13;10368620;28;20045;-48
2022/12/13 22:03:38;;;;;;;13.95;11.23;;;;;;;-0.86;61.78;99207.66;10368876;28;20044;-47
2022/12/13 22:08:39;;;;;;;13.68;11.00;;;;;;;-0.88;61.87;99180.78;10368926;28;20132;-49
2022/12/13 22:13:41;;;;;;;14.82;11.80;;;;;;;-0.93;61.60;99186.22;10368086;28;21066;-52
2022/12/13 22:18:48;;;;;;;12.02;9.55;;;;;;;-0.93;61.40;99181.00;10365830;28;20187;-48
2022/12/13 22:23:54;;;;;;;15.27;10.25;;;;;;;-0.94;60.90;99170.63;10362172;28;20049;-48
2022/12/13 22:28:57;;;;;;;13.77;10.35;;;;;;;-0.93;61.12;99154.88;10366527;28;20049;-48
2022/12/13 22:33:58;;;;;;;12.20;9.60;;;;;;;-0.93;61.08;99157.50;10367819;28;20060;-48
2022/12/13 22:39:00;;;;;;;13.32;10.25;;;;;;;-0.96;61.35;99164.63;10363770;28;20214;-48
2022/12/13 22:44:01;;;;;;;11.30;9.95;;;;;;;-0.96;61.45;99143.72;10364980;28;20041;-49
2022/12/13 22:49:04;;;;;;;12.63;9.48;;;;;;;-1.04;61.47;99132.84;10366497;28;20053;-49
2022/12/13 22:54:06;;;;;;;10.65;9.25;;;;;;;-0.98;61.61;99137.75;10365998;28;20052;-48
2022/12/13 22:59:07;;;;;;;13.25;9.40;;;;;;;-0.97;61.25;99127.22;10365792;28;20045;-48
2022/12/13 23:04:10;;;;;;;13.93;10.85;;;;;;;-0.97;61.86;99129.00;10364695;28;20053;-47
2022/12/13 23:09:14;;;;;;;12.57;9.60;;;;;;;-1.04;61.64;99109.31;10367182;28;20144;-48
2022/12/13 23:14:24;;;;;;;12.50;9.75;;;;;;;-0.93;61.30;99109.59;10365672;28;20052;-49
2022/12/13 23:19:26;;;;;;;14.15;9.27;;;;;;;-0.93;61.04;99105.25;10363904;28;20615;-48
2022/12/13 23:24:48;;;;;;;10.90;8.73;;;;;;;-0.93;61.23;99120.91;10365002;28;20125;-48
2022/12/13 23:29:50;;;;;;;10.52;8.35;;;;;;;-0.91;61.00;99108.63;10365927;28;20046;-48
2022/12/13 23:34:51;;;;;;;9.07;7.78;;;;;;;-0.84;61.10;99101.31;10364565;28;20774;-50
2022/12/13 23:39:53;;;;;;;11.60;8.85;;;;;;;-0.88;60.79;99098.94;10362319;28;20103;-48
2022/12/13 23:44:54;;;;;;;12.50;9.65;;;;;;;-0.90;60.96;99085.97;10361942;28;20049;-49